<?xml version="1.0" encoding="UTF-8"?><gpx creator="Wikiloc - https://www.wikiloc.com" version="1.1" xmlns="http://www.topografix.com/GPX/1/1" xmlns:xsi="http://www.w3.org/2001/XMLSchema-instance" xsi:schemaLocation="http://www.topografix.com/GPX/1/1 http://www.topografix.com/GPX/1/1/gpx.xsd"><metadata><name>Wikiloc - Paseos Rurales - Balcón del Mundo</name><author><name>Red Extremeña de Desarrollo Rural (REDEX)</name><link href="https://www.wikiloc.com/wikiloc/user.do?id=2006209"><text>Red Extremeña de Desarrollo Rural (REDEX) on Wikiloc</text></link></author><link href="https://www.wikiloc.com/walking-trails/paseos-rurales-balcon-del-mundo-18332838"><text>Paseos Rurales - Balcón del Mundo on Wikiloc</text></link><time>2016-02-09T11:14:15Z</time></metadata><trk><name>Paseos Rurales - Balcón del Mundo</name><cmt></cmt><desc></desc><trkseg><trkpt lat="39.718072" lon="-6.882438"><ele>240.658</ele><time>2016-02-09T11:04:03Z</time></trkpt><trkpt lat="39.718258" lon="-6.882878"><ele>240.752</ele><time>2016-02-09T11:04:07Z</time></trkpt><trkpt lat="39.718798" lon="-6.883902"><ele>235.917</ele><time>2016-02-09T11:04:18Z</time></trkpt><trkpt lat="39.718900" lon="-6.883890"><ele>235.908</ele><time>2016-02-09T11:04:19Z</time></trkpt><trkpt lat="39.719148" lon="-6.883970"><ele>234.146</ele><time>2016-02-09T11:04:22Z</time></trkpt><trkpt lat="39.719746" lon="-6.884268"><ele>232.323</ele><time>2016-02-09T11:04:29Z</time></trkpt><trkpt lat="39.720010" lon="-6.884611"><ele>233.078</ele><time>2016-02-09T11:04:33Z</time></trkpt><trkpt lat="39.720120" lon="-6.884974"><ele>235.238</ele><time>2016-02-09T11:04:37Z</time></trkpt><trkpt lat="39.720416" lon="-6.885026"><ele>232.547</ele><time>2016-02-09T11:04:40Z</time></trkpt><trkpt lat="39.720546" lon="-6.885142"><ele>232.123</ele><time>2016-02-09T11:04:42Z</time></trkpt><trkpt lat="39.720663" lon="-6.885356"><ele>230.728</ele><time>2016-02-09T11:04:44Z</time></trkpt><trkpt lat="39.720733" lon="-6.885662"><ele>228.583</ele><time>2016-02-09T11:04:47Z</time></trkpt><trkpt lat="39.720812" lon="-6.886091"><ele>224.016</ele><time>2016-02-09T11:04:50Z</time></trkpt><trkpt lat="39.720847" lon="-6.886300"><ele>222.176</ele><time>2016-02-09T11:04:52Z</time></trkpt><trkpt lat="39.720560" lon="-6.886464"><ele>225.613</ele><time>2016-02-09T11:04:56Z</time></trkpt><trkpt lat="39.720383" lon="-6.886595"><ele>226.208</ele><time>2016-02-09T11:04:58Z</time></trkpt><trkpt lat="39.720498" lon="-6.887024"><ele>228.062</ele><time>2016-02-09T11:05:02Z</time></trkpt><trkpt lat="39.720424" lon="-6.887149"><ele>228.689</ele><time>2016-02-09T11:05:03Z</time></trkpt><trkpt lat="39.720364" lon="-6.887294"><ele>229.044</ele><time>2016-02-09T11:05:05Z</time></trkpt><trkpt lat="39.720383" lon="-6.887694"><ele>229.114</ele><time>2016-02-09T11:05:08Z</time></trkpt><trkpt lat="39.720582" lon="-6.887786"><ele>228.293</ele><time>2016-02-09T11:05:10Z</time></trkpt><trkpt lat="39.720716" lon="-6.888258"><ele>225.529</ele><time>2016-02-09T11:05:15Z</time></trkpt><trkpt lat="39.720861" lon="-6.888629"><ele>224.094</ele><time>2016-02-09T11:05:18Z</time></trkpt><trkpt lat="39.721004" lon="-6.888951"><ele>226.469</ele><time>2016-02-09T11:05:21Z</time></trkpt><trkpt lat="39.721311" lon="-6.889311"><ele>220.771</ele><time>2016-02-09T11:05:26Z</time></trkpt><trkpt lat="39.721175" lon="-6.889614"><ele>215.341</ele><time>2016-02-09T11:05:29Z</time></trkpt><trkpt lat="39.721074" lon="-6.889710"><ele>213.615</ele><time>2016-02-09T11:05:30Z</time></trkpt><trkpt lat="39.721022" lon="-6.889895"><ele>210.608</ele><time>2016-02-09T11:05:32Z</time></trkpt><trkpt lat="39.721218" lon="-6.890153"><ele>206.868</ele><time>2016-02-09T11:05:35Z</time></trkpt><trkpt lat="39.721410" lon="-6.890271"><ele>202.065</ele><time>2016-02-09T11:05:38Z</time></trkpt><trkpt lat="39.721668" lon="-6.890330"><ele>197.790</ele><time>2016-02-09T11:05:40Z</time></trkpt><trkpt lat="39.721771" lon="-6.890300"><ele>196.350</ele><time>2016-02-09T11:05:42Z</time></trkpt><trkpt lat="39.721933" lon="-6.890099"><ele>194.269</ele><time>2016-02-09T11:05:44Z</time></trkpt><trkpt lat="39.722132" lon="-6.889807"><ele>191.235</ele><time>2016-02-09T11:05:47Z</time></trkpt><trkpt lat="39.722254" lon="-6.889614"><ele>189.310</ele><time>2016-02-09T11:05:50Z</time></trkpt><trkpt lat="39.722353" lon="-6.889412"><ele>187.265</ele><time>2016-02-09T11:05:52Z</time></trkpt><trkpt lat="39.722432" lon="-6.889206"><ele>185.454</ele><time>2016-02-09T11:05:54Z</time></trkpt><trkpt lat="39.722498" lon="-6.889182"><ele>183.756</ele><time>2016-02-09T11:05:54Z</time></trkpt><trkpt lat="39.722510" lon="-6.889375"><ele>181.311</ele><time>2016-02-09T11:05:56Z</time></trkpt><trkpt lat="39.722452" lon="-6.889726"><ele>177.708</ele><time>2016-02-09T11:05:59Z</time></trkpt><trkpt lat="39.722326" lon="-6.890072"><ele>174.946</ele><time>2016-02-09T11:06:02Z</time></trkpt><trkpt lat="39.722242" lon="-6.890249"><ele>173.213</ele><time>2016-02-09T11:06:04Z</time></trkpt><trkpt lat="39.722110" lon="-6.890576"><ele>170.848</ele><time>2016-02-09T11:06:07Z</time></trkpt><trkpt lat="39.722071" lon="-6.890734"><ele>169.048</ele><time>2016-02-09T11:06:09Z</time></trkpt><trkpt lat="39.721827" lon="-6.891128"><ele>162.757</ele><time>2016-02-09T11:06:13Z</time></trkpt><trkpt lat="39.721701" lon="-6.891305"><ele>159.373</ele><time>2016-02-09T11:06:15Z</time></trkpt><trkpt lat="39.721371" lon="-6.891504"><ele>154.038</ele><time>2016-02-09T11:06:19Z</time></trkpt><trkpt lat="39.721605" lon="-6.891539"><ele>151.873</ele><time>2016-02-09T11:06:22Z</time></trkpt><trkpt lat="39.721743" lon="-6.891623"><ele>150.996</ele><time>2016-02-09T11:06:23Z</time></trkpt><trkpt lat="39.722556" lon="-6.892567"><ele>115.031</ele><time>2016-02-09T11:06:36Z</time></trkpt><trkpt lat="39.723066" lon="-6.893227"><ele>150.824</ele><time>2016-02-09T11:06:44Z</time></trkpt><trkpt lat="39.721978" lon="-6.891923"><ele>131.408</ele><time>2016-02-09T11:07:00Z</time></trkpt><trkpt lat="39.721716" lon="-6.891646"><ele>150.910</ele><time>2016-02-09T11:07:04Z</time></trkpt><trkpt lat="39.721596" lon="-6.891563"><ele>151.167</ele><time>2016-02-09T11:07:05Z</time></trkpt><trkpt lat="39.721347" lon="-6.891533"><ele>153.392</ele><time>2016-02-09T11:07:08Z</time></trkpt><trkpt lat="39.721242" lon="-6.891619"><ele>155.352</ele><time>2016-02-09T11:07:09Z</time></trkpt><trkpt lat="39.721204" lon="-6.891761"><ele>157.881</ele><time>2016-02-09T11:07:11Z</time></trkpt><trkpt lat="39.721206" lon="-6.891850"><ele>159.567</ele><time>2016-02-09T11:07:11Z</time></trkpt><trkpt lat="39.720995" lon="-6.891775"><ele>165.272</ele><time>2016-02-09T11:07:14Z</time></trkpt><trkpt lat="39.720689" lon="-6.891657"><ele>171.597</ele><time>2016-02-09T11:07:17Z</time></trkpt><trkpt lat="39.720415" lon="-6.891509"><ele>178.475</ele><time>2016-02-09T11:07:21Z</time></trkpt><trkpt lat="39.720277" lon="-6.891252"><ele>180.928</ele><time>2016-02-09T11:07:23Z</time></trkpt><trkpt lat="39.720165" lon="-6.890962"><ele>187.120</ele><time>2016-02-09T11:07:26Z</time></trkpt><trkpt lat="39.720056" lon="-6.890672"><ele>192.808</ele><time>2016-02-09T11:07:29Z</time></trkpt><trkpt lat="39.719913" lon="-6.890407"><ele>198.818</ele><time>2016-02-09T11:07:32Z</time></trkpt><trkpt lat="39.719781" lon="-6.890117"><ele>203.615</ele><time>2016-02-09T11:07:35Z</time></trkpt><trkpt lat="39.719692" lon="-6.890139"><ele>206.540</ele><time>2016-02-09T11:07:36Z</time></trkpt><trkpt lat="39.719700" lon="-6.890267"><ele>207.650</ele><time>2016-02-09T11:07:37Z</time></trkpt><trkpt lat="39.719711" lon="-6.890514"><ele>208.379</ele><time>2016-02-09T11:07:39Z</time></trkpt><trkpt lat="39.719721" lon="-6.890742"><ele>210.465</ele><time>2016-02-09T11:07:41Z</time></trkpt><trkpt lat="39.719667" lon="-6.890994"><ele>212.570</ele><time>2016-02-09T11:07:43Z</time></trkpt><trkpt lat="39.719603" lon="-6.891118"><ele>215.285</ele><time>2016-02-09T11:07:44Z</time></trkpt><trkpt lat="39.719541" lon="-6.891171"><ele>216.787</ele><time>2016-02-09T11:07:45Z</time></trkpt><trkpt lat="39.719354" lon="-6.891410"><ele>212.742</ele><time>2016-02-09T11:07:48Z</time></trkpt><trkpt lat="39.719329" lon="-6.891796"><ele>206.726</ele><time>2016-02-09T11:07:51Z</time></trkpt><trkpt lat="39.719222" lon="-6.891882"><ele>204.308</ele><time>2016-02-09T11:07:53Z</time></trkpt><trkpt lat="39.718946" lon="-6.892017"><ele>200.579</ele><time>2016-02-09T11:07:56Z</time></trkpt><trkpt lat="39.718797" lon="-6.892101"><ele>198.876</ele><time>2016-02-09T11:07:58Z</time></trkpt><trkpt lat="39.718677" lon="-6.892189"><ele>197.981</ele><time>2016-02-09T11:07:59Z</time></trkpt><trkpt lat="39.718659" lon="-6.892245"><ele>198.711</ele><time>2016-02-09T11:08:00Z</time></trkpt><trkpt lat="39.718719" lon="-6.892304"><ele>198.450</ele><time>2016-02-09T11:08:01Z</time></trkpt><trkpt lat="39.718799" lon="-6.892519"><ele>199.156</ele><time>2016-02-09T11:08:03Z</time></trkpt><trkpt lat="39.718774" lon="-6.892645"><ele>201.271</ele><time>2016-02-09T11:08:04Z</time></trkpt><trkpt lat="39.718785" lon="-6.892937"><ele>202.986</ele><time>2016-02-09T11:08:06Z</time></trkpt><trkpt lat="39.718820" lon="-6.893128"><ele>203.242</ele><time>2016-02-09T11:08:08Z</time></trkpt><trkpt lat="39.718875" lon="-6.893316"><ele>203.522</ele><time>2016-02-09T11:08:10Z</time></trkpt><trkpt lat="39.718821" lon="-6.893430"><ele>203.814</ele><time>2016-02-09T11:08:11Z</time></trkpt><trkpt lat="39.718685" lon="-6.893647"><ele>203.308</ele><time>2016-02-09T11:08:13Z</time></trkpt><trkpt lat="39.718602" lon="-6.893733"><ele>202.865</ele><time>2016-02-09T11:08:15Z</time></trkpt><trkpt lat="39.718323" lon="-6.893967"><ele>205.142</ele><time>2016-02-09T11:08:18Z</time></trkpt><trkpt lat="39.718216" lon="-6.894052"><ele>203.457</ele><time>2016-02-09T11:08:20Z</time></trkpt><trkpt lat="39.718134" lon="-6.894079"><ele>201.597</ele><time>2016-02-09T11:08:21Z</time></trkpt><trkpt lat="39.718039" lon="-6.894122"><ele>201.196</ele><time>2016-02-09T11:08:22Z</time></trkpt><trkpt lat="39.718024" lon="-6.894444"><ele>202.112</ele><time>2016-02-09T11:08:24Z</time></trkpt><trkpt lat="39.717950" lon="-6.894618"><ele>205.417</ele><time>2016-02-09T11:08:26Z</time></trkpt><trkpt lat="39.717880" lon="-6.894758"><ele>207.832</ele><time>2016-02-09T11:08:28Z</time></trkpt><trkpt lat="39.717799" lon="-6.894814"><ele>208.841</ele><time>2016-02-09T11:08:29Z</time></trkpt><trkpt lat="39.717762" lon="-6.895018"><ele>211.381</ele><time>2016-02-09T11:08:30Z</time></trkpt><trkpt lat="39.717834" lon="-6.894981"><ele>212.209</ele><time>2016-02-09T11:08:31Z</time></trkpt><trkpt lat="39.717839" lon="-6.895032"><ele>213.208</ele><time>2016-02-09T11:08:32Z</time></trkpt><trkpt lat="39.717760" lon="-6.895091"><ele>213.635</ele><time>2016-02-09T11:08:33Z</time></trkpt><trkpt lat="39.717731" lon="-6.895262"><ele>216.392</ele><time>2016-02-09T11:08:34Z</time></trkpt><trkpt lat="39.717469" lon="-6.895838"><ele>219.577</ele><time>2016-02-09T11:08:40Z</time></trkpt><trkpt lat="39.717380" lon="-6.896112"><ele>221.117</ele><time>2016-02-09T11:08:42Z</time></trkpt><trkpt lat="39.717277" lon="-6.896460"><ele>220.596</ele><time>2016-02-09T11:08:46Z</time></trkpt><trkpt lat="39.717194" lon="-6.896695"><ele>219.672</ele><time>2016-02-09T11:08:48Z</time></trkpt><trkpt lat="39.717078" lon="-6.896974"><ele>217.887</ele><time>2016-02-09T11:08:51Z</time></trkpt><trkpt lat="39.717002" lon="-6.897312"><ele>215.282</ele><time>2016-02-09T11:08:54Z</time></trkpt><trkpt lat="39.716977" lon="-6.897778"><ele>213.174</ele><time>2016-02-09T11:08:58Z</time></trkpt><trkpt lat="39.716990" lon="-6.898020"><ele>214.556</ele><time>2016-02-09T11:09:00Z</time></trkpt><trkpt lat="39.717179" lon="-6.898430"><ele>214.321</ele><time>2016-02-09T11:09:04Z</time></trkpt><trkpt lat="39.717202" lon="-6.898570"><ele>213.708</ele><time>2016-02-09T11:09:05Z</time></trkpt><trkpt lat="39.717194" lon="-6.898685"><ele>212.968</ele><time>2016-02-09T11:09:06Z</time></trkpt><trkpt lat="39.717134" lon="-6.899023"><ele>211.765</ele><time>2016-02-09T11:09:09Z</time></trkpt><trkpt lat="39.717148" lon="-6.899428"><ele>206.310</ele><time>2016-02-09T11:09:12Z</time></trkpt><trkpt lat="39.717099" lon="-6.899841"><ele>207.150</ele><time>2016-02-09T11:09:16Z</time></trkpt><trkpt lat="39.717033" lon="-6.899964"><ele>210.569</ele><time>2016-02-09T11:09:17Z</time></trkpt><trkpt lat="39.716965" lon="-6.900002"><ele>214.115</ele><time>2016-02-09T11:09:18Z</time></trkpt><trkpt lat="39.716899" lon="-6.900007"><ele>218.180</ele><time>2016-02-09T11:09:19Z</time></trkpt><trkpt lat="39.716872" lon="-6.899720"><ele>222.855</ele><time>2016-02-09T11:09:21Z</time></trkpt><trkpt lat="39.716829" lon="-6.899379"><ele>228.543</ele><time>2016-02-09T11:09:24Z</time></trkpt><trkpt lat="39.716787" lon="-6.899076"><ele>233.064</ele><time>2016-02-09T11:09:27Z</time></trkpt><trkpt lat="39.716746" lon="-6.898803"><ele>237.010</ele><time>2016-02-09T11:09:29Z</time></trkpt><trkpt lat="39.716686" lon="-6.898631"><ele>239.308</ele><time>2016-02-09T11:09:31Z</time></trkpt><trkpt lat="39.716567" lon="-6.898403"><ele>238.865</ele><time>2016-02-09T11:09:33Z</time></trkpt><trkpt lat="39.716414" lon="-6.897880"><ele>241.392</ele><time>2016-02-09T11:09:38Z</time></trkpt><trkpt lat="39.716317" lon="-6.897464"><ele>246.267</ele><time>2016-02-09T11:09:42Z</time></trkpt><trkpt lat="39.716246" lon="-6.897045"><ele>251.717</ele><time>2016-02-09T11:09:45Z</time></trkpt><trkpt lat="39.716199" lon="-6.897021"><ele>251.786</ele><time>2016-02-09T11:09:46Z</time></trkpt><trkpt lat="39.716038" lon="-6.897083"><ele>250.052</ele><time>2016-02-09T11:09:48Z</time></trkpt><trkpt lat="39.715912" lon="-6.897059"><ele>249.087</ele><time>2016-02-09T11:09:49Z</time></trkpt><trkpt lat="39.715852" lon="-6.896986"><ele>248.812</ele><time>2016-02-09T11:09:50Z</time></trkpt><trkpt lat="39.715760" lon="-6.896694"><ele>249.418</ele><time>2016-02-09T11:09:53Z</time></trkpt><trkpt lat="39.715474" lon="-6.896074"><ele>247.798</ele><time>2016-02-09T11:09:59Z</time></trkpt><trkpt lat="39.715360" lon="-6.895903"><ele>244.617</ele><time>2016-02-09T11:10:01Z</time></trkpt><trkpt lat="39.715179" lon="-6.895653"><ele>244.308</ele><time>2016-02-09T11:10:04Z</time></trkpt><trkpt lat="39.715113" lon="-6.895538"><ele>244.222</ele><time>2016-02-09T11:10:05Z</time></trkpt><trkpt lat="39.715069" lon="-6.895307"><ele>244.749</ele><time>2016-02-09T11:10:07Z</time></trkpt><trkpt lat="39.715088" lon="-6.895154"><ele>245.124</ele><time>2016-02-09T11:10:08Z</time></trkpt><trkpt lat="39.715162" lon="-6.895058"><ele>246.614</ele><time>2016-02-09T11:10:10Z</time></trkpt><trkpt lat="39.715039" lon="-6.894696"><ele>247.773</ele><time>2016-02-09T11:10:13Z</time></trkpt><trkpt lat="39.715282" lon="-6.894414"><ele>243.599</ele><time>2016-02-09T11:10:17Z</time></trkpt><trkpt lat="39.715313" lon="-6.894281"><ele>241.514</ele><time>2016-02-09T11:10:18Z</time></trkpt><trkpt lat="39.715251" lon="-6.894072"><ele>243.929</ele><time>2016-02-09T11:10:20Z</time></trkpt><trkpt lat="39.715121" lon="-6.893885"><ele>244.858</ele><time>2016-02-09T11:10:22Z</time></trkpt><trkpt lat="39.715041" lon="-6.893729"><ele>243.552</ele><time>2016-02-09T11:10:24Z</time></trkpt><trkpt lat="39.715041" lon="-6.893522"><ele>243.117</ele><time>2016-02-09T11:10:25Z</time></trkpt><trkpt lat="39.714987" lon="-6.893335"><ele>242.108</ele><time>2016-02-09T11:10:27Z</time></trkpt><trkpt lat="39.715010" lon="-6.892986"><ele>243.846</ele><time>2016-02-09T11:10:30Z</time></trkpt><trkpt lat="39.714989" lon="-6.892844"><ele>245.783</ele><time>2016-02-09T11:10:31Z</time></trkpt><trkpt lat="39.714892" lon="-6.892742"><ele>248.158</ele><time>2016-02-09T11:10:33Z</time></trkpt><trkpt lat="39.714498" lon="-6.892289"><ele>253.918</ele><time>2016-02-09T11:10:38Z</time></trkpt><trkpt lat="39.714155" lon="-6.891967"><ele>256.887</ele><time>2016-02-09T11:10:43Z</time></trkpt><trkpt lat="39.713821" lon="-6.891710"><ele>258.383</ele><time>2016-02-09T11:10:47Z</time></trkpt><trkpt lat="39.713887" lon="-6.891565"><ele>257.638</ele><time>2016-02-09T11:10:49Z</time></trkpt><trkpt lat="39.714378" lon="-6.891243"><ele>252.353</ele><time>2016-02-09T11:10:55Z</time></trkpt><trkpt lat="39.714832" lon="-6.890948"><ele>250.425</ele><time>2016-02-09T11:11:01Z</time></trkpt><trkpt lat="39.715166" lon="-6.890642"><ele>247.126</ele><time>2016-02-09T11:11:05Z</time></trkpt><trkpt lat="39.715294" lon="-6.890122"><ele>240.708</ele><time>2016-02-09T11:11:10Z</time></trkpt><trkpt lat="39.715241" lon="-6.889782"><ele>237.908</ele><time>2016-02-09T11:11:13Z</time></trkpt><trkpt lat="39.715105" lon="-6.889530"><ele>236.183</ele><time>2016-02-09T11:11:15Z</time></trkpt><trkpt lat="39.715026" lon="-6.889316"><ele>235.220</ele><time>2016-02-09T11:11:18Z</time></trkpt><trkpt lat="39.715340" lon="-6.889122"><ele>235.555</ele><time>2016-02-09T11:11:21Z</time></trkpt><trkpt lat="39.715526" lon="-6.888924"><ele>239.385</ele><time>2016-02-09T11:11:24Z</time></trkpt><trkpt lat="39.715666" lon="-6.888516"><ele>238.424</ele><time>2016-02-09T11:11:28Z</time></trkpt><trkpt lat="39.716083" lon="-6.888388"><ele>237.760</ele><time>2016-02-09T11:11:33Z</time></trkpt><trkpt lat="39.716404" lon="-6.888227"><ele>238.555</ele><time>2016-02-09T11:11:36Z</time></trkpt><trkpt lat="39.716563" lon="-6.887914"><ele>242.850</ele><time>2016-02-09T11:11:40Z</time></trkpt><trkpt lat="39.716493" lon="-6.887630"><ele>246.317</ele><time>2016-02-09T11:11:42Z</time></trkpt><trkpt lat="39.716654" lon="-6.887496"><ele>247.287</ele><time>2016-02-09T11:11:44Z</time></trkpt><trkpt lat="39.716836" lon="-6.888091"><ele>246.815</ele><time>2016-02-09T11:11:50Z</time></trkpt><trkpt lat="39.717277" lon="-6.888638"><ele>242.608</ele><time>2016-02-09T11:11:57Z</time></trkpt><trkpt lat="39.717252" lon="-6.888955"><ele>241.582</ele><time>2016-02-09T11:11:59Z</time></trkpt><trkpt lat="39.717273" lon="-6.889524"><ele>235.899</ele><time>2016-02-09T11:12:04Z</time></trkpt><trkpt lat="39.717298" lon="-6.889958"><ele>232.034</ele><time>2016-02-09T11:12:08Z</time></trkpt><trkpt lat="39.717389" lon="-6.890237"><ele>230.914</ele><time>2016-02-09T11:12:11Z</time></trkpt><trkpt lat="39.717620" lon="-6.890484"><ele>230.413</ele><time>2016-02-09T11:12:14Z</time></trkpt><trkpt lat="39.717752" lon="-6.890725"><ele>231.039</ele><time>2016-02-09T11:12:16Z</time></trkpt><trkpt lat="39.717888" lon="-6.890870"><ele>232.844</ele><time>2016-02-09T11:12:18Z</time></trkpt><trkpt lat="39.717979" lon="-6.891085"><ele>233.649</ele><time>2016-02-09T11:12:20Z</time></trkpt><trkpt lat="39.718160" lon="-6.891197"><ele>233.231</ele><time>2016-02-09T11:12:23Z</time></trkpt><trkpt lat="39.718358" lon="-6.891079"><ele>232.061</ele><time>2016-02-09T11:12:25Z</time></trkpt><trkpt lat="39.718551" lon="-6.891004"><ele>229.207</ele><time>2016-02-09T11:12:27Z</time></trkpt><trkpt lat="39.718981" lon="-6.891042"><ele>224.908</ele><time>2016-02-09T11:12:32Z</time></trkpt><trkpt lat="39.719306" lon="-6.890956"><ele>223.214</ele><time>2016-02-09T11:12:36Z</time></trkpt><trkpt lat="39.719525" lon="-6.890511"><ele>214.511</ele><time>2016-02-09T11:12:40Z</time></trkpt><trkpt lat="39.719660" lon="-6.890187"><ele>207.456</ele><time>2016-02-09T11:12:43Z</time></trkpt><trkpt lat="39.719670" lon="-6.889919"><ele>207.536</ele><time>2016-02-09T11:12:46Z</time></trkpt><trkpt lat="39.719629" lon="-6.889797"><ele>208.635</ele><time>2016-02-09T11:12:47Z</time></trkpt><trkpt lat="39.719788" lon="-6.889472"><ele>211.111</ele><time>2016-02-09T11:12:50Z</time></trkpt><trkpt lat="39.720048" lon="-6.889198"><ele>214.956</ele><time>2016-02-09T11:12:54Z</time></trkpt><trkpt lat="39.720147" lon="-6.889258"><ele>216.911</ele><time>2016-02-09T11:12:55Z</time></trkpt><trkpt lat="39.720494" lon="-6.888890"><ele>220.634</ele><time>2016-02-09T11:13:00Z</time></trkpt><trkpt lat="39.720538" lon="-6.888807"><ele>221.255</ele><time>2016-02-09T11:13:01Z</time></trkpt><trkpt lat="39.720398" lon="-6.888558"><ele>221.810</ele><time>2016-02-09T11:13:04Z</time></trkpt><trkpt lat="39.720194" lon="-6.888273"><ele>224.208</ele><time>2016-02-09T11:13:07Z</time></trkpt><trkpt lat="39.720113" lon="-6.888198"><ele>225.014</ele><time>2016-02-09T11:13:08Z</time></trkpt><trkpt lat="39.719946" lon="-6.887949"><ele>223.991</ele><time>2016-02-09T11:13:11Z</time></trkpt><trkpt lat="39.719715" lon="-6.887437"><ele>221.016</ele><time>2016-02-09T11:13:16Z</time></trkpt><trkpt lat="39.719441" lon="-6.887051"><ele>220.696</ele><time>2016-02-09T11:13:20Z</time></trkpt><trkpt lat="39.718999" lon="-6.886467"><ele>222.295</ele><time>2016-02-09T11:13:27Z</time></trkpt><trkpt lat="39.718731" lon="-6.886016"><ele>223.831</ele><time>2016-02-09T11:13:32Z</time></trkpt><trkpt lat="39.718704" lon="-6.885688"><ele>225.586</ele><time>2016-02-09T11:13:35Z</time></trkpt><trkpt lat="39.718600" lon="-6.885244"><ele>228.621</ele><time>2016-02-09T11:13:39Z</time></trkpt><trkpt lat="39.718404" lon="-6.884547"><ele>234.175</ele><time>2016-02-09T11:13:45Z</time></trkpt><trkpt lat="39.718258" lon="-6.884306"><ele>236.728</ele><time>2016-02-09T11:13:48Z</time></trkpt><trkpt lat="39.718136" lon="-6.883995"><ele>239.920</ele><time>2016-02-09T11:13:51Z</time></trkpt><trkpt lat="39.717800" lon="-6.883493"><ele>245.108</ele><time>2016-02-09T11:13:57Z</time></trkpt><trkpt lat="39.717457" lon="-6.882836"><ele>249.048</ele><time>2016-02-09T11:14:04Z</time></trkpt><trkpt lat="39.717387" lon="-6.882653"><ele>248.075</ele><time>2016-02-09T11:14:05Z</time></trkpt><trkpt lat="39.717581" lon="-6.882581"><ele>246.650</ele><time>2016-02-09T11:14:08Z</time></trkpt><trkpt lat="39.717696" lon="-6.882554"><ele>246.420</ele><time>2016-02-09T11:14:09Z</time></trkpt><trkpt lat="39.717812" lon="-6.882503"><ele>245.149</ele><time>2016-02-09T11:14:10Z</time></trkpt><trkpt lat="39.717921" lon="-6.882538"><ele>243.875</ele><time>2016-02-09T11:14:11Z</time></trkpt><trkpt lat="39.718014" lon="-6.882589"><ele>242.490</ele><time>2016-02-09T11:14:13Z</time></trkpt><trkpt lat="39.718108" lon="-6.882558"><ele>241.275</ele><time>2016-02-09T11:14:14Z</time></trkpt><trkpt lat="39.718058" lon="-6.882450"><ele>240.776</ele><time>2016-02-09T11:14:15Z</time></trkpt></trkseg></trk></gpx>